createdAt,value
2022-08-09T00:02:30.963Z,20.75
2022-08-09T00:07:44.587Z,20.70
2022-08-09T00:12:47.449Z,20.64
2022-08-09T00:18:07.648Z,20.70
2022-08-09T00:23:54.836Z,20.66
2022-08-09T00:28:37.129Z,20.59
2022-08-09T00:33:51.114Z,20.53
2022-08-09T00:38:56.063Z,20.49
2022-08-09T00:44:27.275Z,20.28
2022-08-09T00:49:21.095Z,20.38
2022-08-09T00:54:31.388Z,20.33
2022-08-09T00:59:46.862Z,20.23
2022-08-09T01:05:23.173Z,20.14
2022-08-09T01:10:51.905Z,20.05
2022-08-09T01:15:57.622Z,20.03
2022-08-09T01:21:10.002Z,20.02
2022-08-09T01:26:36.275Z,19.96
2022-08-09T01:32:29.810Z,20.00
2022-08-09T01:37:05.314Z,19.95
2022-08-09T01:42:11.282Z,19.82
2022-08-09T01:47:14.842Z,19.78
2022-08-09T01:52:20.781Z,19.62
2022-08-09T01:57:28.259Z,19.29
2022-08-09T02:02:32.723Z,19.29
2022-08-09T02:08:39.297Z,19.29
2022-08-09T02:13:06.707Z,19.26
2022-08-09T02:18:10.747Z,19.04
2022-08-09T02:23:21.868Z,18.92
2022-08-09T02:28:36.083Z,18.92
2022-08-09T02:34:06.736Z,18.84
2022-08-09T02:39:14.534Z,18.66
2022-08-09T02:44:30.297Z,18.70
2022-08-09T02:49:41.763Z,18.73
2022-08-09T02:54:54.552Z,18.71
2022-08-09T03:00:25.760Z,18.48
2022-08-09T03:05:26.087Z,19.19
2022-08-09T03:10:29.043Z,19.16
2022-08-09T03:16:04.362Z,19.24
2022-08-09T03:20:56.316Z,19.21
2022-08-09T03:26:04.808Z,19.14
2022-08-09T03:31:10.004Z,19.10
2022-08-09T03:36:27.364Z,19.11
2022-08-09T03:41:46.016Z,19.09
2022-08-09T03:46:51.424Z,19.04
2022-08-09T03:52:00.159Z,19.08
2022-08-09T03:57:18.583Z,19.09
2022-08-09T04:02:27.378Z,19.05
2022-08-09T04:07:47.320Z,19.08
2022-08-09T04:12:54.951Z,19.13
2022-08-09T04:17:57.810Z,19.09
2022-08-09T04:23:00.370Z,18.99
2022-08-09T04:28:05.225Z,19.16
2022-08-09T04:33:08.129Z,19.21
2022-08-09T04:38:10.754Z,19.28
2022-08-09T04:43:13.700Z,19.31
2022-08-09T04:48:17.866Z,19.25
2022-08-09T04:53:20.315Z,19.35
2022-08-09T04:58:24.677Z,19.45
2022-08-09T05:03:39.875Z,19.49
2022-08-09T05:08:47.731Z,19.32
2022-08-09T05:13:50.830Z,19.73
2022-08-09T05:18:59.934Z,19.69
2022-08-09T05:24:04.013Z,19.83
2022-08-09T05:29:07.359Z,19.88
2022-08-09T05:34:20.388Z,19.92
2022-08-09T05:39:28.890Z,20.01
2022-08-09T05:44:34.822Z,20.13
2022-08-09T05:50:26.627Z,20.21
2022-08-09T05:55:03.295Z,20.30
2022-08-09T06:00:10.841Z,20.24
2022-08-09T06:05:16.639Z,20.53
2022-08-09T06:10:20.034Z,20.62
2022-08-09T06:15:22.817Z,20.82
2022-08-09T06:20:29.446Z,21.11
2022-08-09T06:25:32.730Z,21.27
2022-08-09T06:30:37.059Z,21.36
2022-08-09T06:35:57.418Z,21.37
2022-08-09T06:41:00.822Z,21.43
2022-08-09T06:46:11.015Z,21.77
2022-08-09T06:51:15.669Z,21.84
2022-08-09T06:56:19.241Z,21.91
2022-08-09T07:01:24.204Z,21.92
2022-08-09T07:06:38.276Z,21.88
2022-08-09T07:11:52.256Z,21.86
2022-08-09T07:16:58.449Z,22.00
2022-08-09T07:22:01.349Z,21.93
2022-08-09T07:27:10.777Z,22.17
2022-08-09T07:32:32.875Z,22.08
2022-08-09T07:37:42.951Z,22.15
2022-08-09T07:42:56.068Z,22.38
2022-08-09T07:48:04.099Z,22.31
2022-08-09T07:53:11.032Z,22.21
2022-08-09T07:58:14.240Z,22.12
2022-08-09T08:03:17.251Z,22.16
2022-08-09T08:09:02.688Z,22.32
2022-08-09T08:13:56.712Z,22.29
2022-08-09T08:19:02.677Z,22.16
2022-08-09T08:24:11.717Z,22.45
2022-08-09T08:29:20.460Z,22.60
2022-08-09T08:34:30.625Z,22.75
2022-08-09T08:39:39.674Z,22.95
2022-08-09T08:44:46.612Z,22.63
2022-08-09T08:49:49.544Z,22.80
2022-08-09T08:54:55.612Z,22.61
2022-08-09T08:59:59.144Z,22.56
2022-08-09T09:05:05.910Z,22.66
2022-08-09T09:10:12.658Z,22.83
2022-08-09T09:15:28.349Z,22.75
2022-08-09T09:20:39.045Z,22.86
2022-08-09T09:26:04.509Z,22.87
2022-08-09T09:31:17.532Z,22.77
2022-08-09T09:36:51.230Z,22.68
2022-08-09T09:41:57.915Z,22.55
2022-08-09T09:47:09.964Z,22.66
2022-08-09T09:52:16.375Z,22.57
2022-08-09T09:58:00.580Z,22.78
2022-08-09T10:02:58.559Z,22.54
2022-08-09T10:08:18.250Z,22.71
2022-08-09T10:13:45.180Z,22.62
2022-08-09T10:18:54.511Z,22.53
2022-08-09T10:24:03.944Z,23.07
2022-08-09T10:29:22.675Z,23.13
2022-08-09T10:34:33.919Z,22.85
2022-08-09T10:39:49.432Z,23.50
2022-08-09T10:45:01.702Z,24.06
2022-08-09T10:51:00.926Z,24.30
2022-08-09T10:56:22.783Z,24.81
2022-08-09T11:03:11.776Z,25.14
2022-08-09T11:07:01.228Z,25.17
2022-08-09T11:12:29.483Z,25.14
2022-08-09T11:17:32.742Z,25.14
2022-08-09T11:22:41.564Z,25.60
2022-08-09T11:28:02.393Z,25.89
2022-08-09T11:33:21.886Z,25.69
2022-08-09T11:38:32.186Z,25.62
2022-08-09T11:43:37.396Z,26.15
2022-08-09T11:48:55.934Z,26.51
2022-08-09T11:54:28.060Z,26.74
2022-08-09T11:59:37.954Z,26.86
2022-08-09T12:04:41.614Z,26.49
2022-08-09T12:09:50.892Z,26.54
2022-08-09T12:15:04.030Z,26.58
2022-08-09T12:20:19.841Z,26.54
2022-08-09T12:25:31.991Z,27.08
2022-08-09T12:30:40.377Z,27.14
2022-08-09T12:35:44.094Z,27.19
2022-08-09T12:40:53.660Z,27.47
2022-08-09T12:45:59.640Z,27.92
2022-08-09T12:51:04.598Z,27.60
2022-08-09T12:56:37.046Z,27.78
2022-08-09T13:01:38.414Z,27.89
2022-08-09T13:06:50.196Z,27.68
2022-08-09T13:12:03.258Z,28.31
2022-08-09T13:17:08.565Z,28.94
2022-08-09T13:22:37.281Z,29.43
2022-08-09T13:27:54.904Z,29.34
2022-08-09T13:33:00.137Z,29.00
2022-08-09T13:38:03.517Z,28.43
2022-08-09T13:43:11.719Z,27.99
2022-08-09T13:48:18.801Z,27.66
2022-08-09T13:53:21.454Z,27.36
2022-08-09T13:58:42.785Z,27.07
2022-08-09T14:04:03.191Z,26.85
2022-08-09T14:09:07.816Z,26.84
2022-08-09T14:14:16.390Z,26.72
2022-08-09T14:19:30.367Z,26.92
2022-08-09T14:24:36.423Z,27.17
2022-08-09T14:30:36.006Z,27.09
2022-08-09T14:35:13.014Z,26.77
2022-08-09T14:40:15.975Z,26.73
2022-08-09T14:46:55.586Z,27.18
2022-08-09T14:50:41.246Z,27.42
2022-08-09T14:55:47.740Z,27.34
2022-08-09T15:00:53.667Z,27.36
2022-08-09T15:06:03.828Z,27.82
2022-08-09T15:11:07.532Z,27.29
2022-08-09T15:16:10.839Z,27.27
2022-08-09T15:21:57.606Z,27.45
2022-08-09T15:26:37.092Z,27.40
2022-08-09T15:31:48.479Z,27.12
2022-08-09T15:36:52.543Z,26.72
2022-08-09T15:41:55.398Z,26.24
2022-08-09T15:46:58.393Z,26.12
2022-08-09T15:52:04.086Z,26.31
2022-08-09T15:57:09.522Z,26.67
2022-08-09T16:02:13.268Z,26.97
2022-08-09T16:07:16.833Z,26.90
2022-08-09T16:12:19.936Z,26.42
2022-08-09T16:17:22.807Z,26.17
2022-08-09T16:22:27.422Z,25.83
2022-08-09T16:27:30.217Z,25.98
2022-08-09T16:32:54.236Z,25.91
2022-08-09T16:37:59.344Z,25.51
2022-08-09T16:43:03.066Z,25.18
2022-08-09T16:48:37.912Z,24.82
2022-08-09T16:53:32.349Z,24.55
2022-08-09T16:58:39.488Z,24.67
2022-08-09T17:03:42.620Z,24.66
2022-08-09T17:09:02.967Z,24.47
2022-08-09T17:14:07.624Z,24.18
2022-08-09T17:19:10.644Z,24.35
2022-08-09T17:24:27.250Z,24.33
2022-08-09T17:29:38.067Z,24.38
2022-08-09T17:35:07.659Z,24.87
2022-08-09T17:40:16.947Z,24.39
2022-08-09T17:45:27.388Z,23.97
2022-08-09T17:50:40.729Z,23.70
2022-08-09T17:55:56.959Z,23.42
2022-08-09T18:01:02.873Z,23.23
2022-08-09T18:06:05.922Z,22.99
2022-08-09T18:11:17.681Z,22.76
2022-08-09T18:16:30.223Z,22.54
2022-08-09T18:21:40.938Z,22.34
2022-08-09T18:26:48.106Z,22.15
2022-08-09T18:31:56.179Z,22.10
2022-08-09T18:36:59.715Z,21.95
2022-08-09T18:42:08.781Z,21.69
2022-08-09T18:47:15.802Z,21.58
2022-08-09T18:52:24.811Z,21.21
2022-08-09T18:57:42.873Z,20.65
2022-08-09T19:02:47.458Z,20.44
2022-08-09T19:08:04.227Z,20.41
2022-08-09T19:13:22.503Z,20.47
2022-08-09T19:18:33.351Z,20.50
2022-08-09T19:24:33.117Z,20.37
2022-08-09T19:29:18.222Z,20.19
2022-08-09T19:34:24.616Z,19.92
2022-08-09T19:40:02.555Z,19.72
2022-08-09T19:44:52.782Z,19.00
2022-08-09T19:50:09.151Z,18.88
2022-08-09T19:55:19.665Z,18.56
2022-08-09T20:00:28.886Z,18.41
2022-08-09T20:05:45.882Z,18.75
2022-08-09T20:10:51.198Z,18.85
2022-08-09T20:16:32.805Z,18.96
2022-08-09T20:21:19.732Z,19.06
2022-08-09T20:26:25.824Z,18.80
2022-08-09T20:31:30.081Z,18.46
2022-08-09T20:36:54.014Z,18.47
2022-08-09T20:41:56.480Z,18.05
2022-08-09T20:46:59.138Z,18.20
2022-08-09T20:52:02.289Z,18.39
2022-08-09T20:57:05.417Z,18.36
2022-08-09T21:02:08.869Z,18.08
2022-08-09T21:07:13.874Z,17.64
2022-08-09T21:18:11.578Z,18.05
2022-08-09T21:22:46.967Z,18.08
2022-08-09T21:27:56.931Z,17.87
2022-08-09T21:33:00.306Z,17.39
2022-08-09T21:38:02.953Z,17.73
2022-08-09T21:43:06.062Z,17.69
2022-08-09T21:48:09.798Z,17.33
2022-08-09T21:53:23.889Z,16.69
2022-08-09T21:58:36.549Z,16.89
2022-08-09T22:03:59.224Z,17.17
2022-08-09T22:09:02.279Z,17.29
2022-08-09T22:14:04.888Z,16.75
2022-08-09T22:19:25.508Z,16.29
2022-08-09T22:24:36.341Z,16.09
2022-08-09T22:29:47.649Z,15.86
2022-08-09T22:35:02.657Z,15.80
2022-08-09T22:40:10.922Z,15.72
2022-08-09T22:48:17.752Z,15.60
2022-08-09T22:50:52.847Z,15.56
2022-08-09T22:56:31.052Z,15.74
2022-08-09T23:01:18.710Z,15.83
2022-08-09T23:06:32.811Z,15.59
2022-08-09T23:11:38.767Z,15.33
2022-08-09T23:16:41.309Z,15.05
2022-08-09T23:21:43.911Z,14.90
2022-08-09T23:26:46.915Z,14.78
2022-08-09T23:31:54.211Z,14.94
2022-08-09T23:36:56.979Z,14.66
2022-08-09T23:41:59.817Z,14.56
2022-08-09T23:47:02.584Z,14.67
2022-08-09T23:52:06.101Z,14.46
2022-08-09T23:57:08.825Z,14.55
